Time;durP1;ratioP1;P1;durP2;ratioP2;P2;SDS_P1;SDS_P2;PMS_P1;PMS_P2;Temp;Humidity;BMP_temperature;BMP_pressure;BME280_temperature;BME280_humidity;BME280_pressure;Samples;Min_cycle;Max_cycle;Signal;HPM_P1;HPM_P2
2022/03/20 00:01:02;;;;;;;2.30;0.45;;;21.60;33.70;;;;;;5046212;28;20080;-59
2022/03/20 00:03:31;;;;;;;2.05;0.20;;;21.60;33.70;;;;;;5045985;28;20518;-60
2022/03/20 00:05:59;;;;;;;1.30;0.30;;;21.60;33.70;;;;;;5046437;28;20037;-60
2022/03/20 00:08:26;;;;;;;0.85;0.20;;;21.50;33.70;;;;;;5046379;28;20494;-60
2022/03/20 00:10:57;;;;;;;1.77;0.20;;;21.50;33.70;;;;;;5046364;28;20064;-60
2022/03/20 00:13:24;;;;;;;2.28;0.73;;;21.50;33.70;;;;;;5045853;28;20454;-60
2022/03/20 00:15:53;;;;;;;0.65;0.20;;;21.50;33.70;;;;;;5046543;28;20091;-60
2022/03/20 00:18:23;;;;;;;1.08;0.40;;;21.50;33.70;;;;;;5046604;28;20095;-59
2022/03/20 00:20:53;;;;;;;1.30;0.20;;;21.50;33.70;;;;;;5046018;28;20107;-59
2022/03/20 00:23:23;;;;;;;1.38;0.50;;;21.50;33.70;;;;;;5047050;28;20041;-60
2022/03/20 00:25:51;;;;;;;1.20;0.20;;;21.50;33.70;;;;;;5046190;28;20041;-60
2022/03/20 00:28:23;;;;;;;1.98;0.50;;;21.40;33.70;;;;;;5046234;28;20045;-60
2022/03/20 00:30:50;;;;;;;1.00;0.15;;;21.50;33.70;;;;;;5046329;28;20099;-60
2022/03/20 00:33:17;;;;;;;1.60;0.20;;;21.40;33.70;;;;;;5046880;28;20045;-60
2022/03/20 00:35:44;;;;;;;0.55;0.20;;;21.40;33.70;;;;;;5046514;28;20049;-60
2022/03/20 00:38:11;;;;;;;1.20;0.13;;;21.40;33.70;;;;;;5045758;28;20414;-60
2022/03/20 00:40:39;;;;;;;3.50;0.57;;;21.40;33.70;;;;;;5045962;28;20106;-60
2022/03/20 00:43:06;;;;;;;1.10;0.40;;;21.40;33.70;;;;;;5045860;28;20049;-60
2022/03/20 00:45:35;;;;;;;1.58;0.22;;;21.40;33.70;;;;;;5047234;28;20064;-60
2022/03/20 00:48:02;;;;;;;1.60;0.40;;;21.40;33.70;;;;;;5045790;28;20037;-59
2022/03/20 00:50:30;;;;;;;1.10;0.20;;;21.40;33.70;;;;;;5046042;28;20132;-61
2022/03/20 00:52:57;;;;;;;1.42;0.20;;;21.30;33.70;;;;;;5045680;28;20040;-60
2022/03/20 00:55:25;;;;;;;1.20;0.20;;;21.30;33.70;;;;;;5045798;28;20590;-60
2022/03/20 00:57:52;;;;;;;0.32;0.17;;;21.40;33.80;;;;;;5046692;28;20045;-60
2022/03/20 01:00:19;;;;;;;1.17;0.30;;;21.30;33.70;;;;;;5046009;28;20049;-60
2022/03/20 01:02:48;;;;;;;0.43;0.35;;;21.30;33.70;;;;;;5045730;28;20117;-60
2022/03/20 01:05:15;;;;;;;0.70;0.20;;;21.30;33.70;;;;;;5045392;28;20036;-60
2022/03/20 01:07:42;;;;;;;1.55;0.10;;;21.30;33.80;;;;;;5046022;28;20079;-61
2022/03/20 01:10:11;;;;;;;1.45;0.40;;;21.20;33.70;;;;;;5045736;28;20057;-61
2022/03/20 01:12:39;;;;;;;0.50;0.30;;;21.20;33.70;;;;;;5047607;28;20037;-61
2022/03/20 01:15:07;;;;;;;0.90;0.10;;;21.20;33.70;;;;;;5045290;28;20037;-61
2022/03/20 01:17:35;;;;;;;0.75;0.75;;;21.20;33.70;;;;;;5045795;28;20033;-60
2022/03/20 01:20:04;;;;;;;0.30;0.10;;;21.20;33.70;;;;;;5045592;28;20044;-60
2022/03/20 01:22:31;;;;;;;2.28;0.40;;;21.20;33.70;;;;;;5046179;28;20052;-60
2022/03/20 01:24:58;;;;;;;1.13;0.20;;;21.20;33.70;;;;;;5050326;28;20051;-60
2022/03/20 01:27:25;;;;;;;1.10;0.20;;;21.20;33.70;;;;;;5051583;28;20041;-61
2022/03/20 01:29:53;;;;;;;1.48;0.20;;;21.20;33.70;;;;;;5050066;28;20040;-61
2022/03/20 01:32:20;;;;;;;0.20;0.10;;;21.20;33.70;;;;;;5043801;28;20065;-60
2022/03/20 01:34:47;;;;;;;1.98;0.30;;;21.10;33.60;;;;;;5043288;28;20090;-60
2022/03/20 01:37:16;;;;;;;1.55;0.10;;;21.10;33.70;;;;;;5049650;28;20503;-60
2022/03/20 01:39:43;;;;;;;1.85;0.20;;;21.10;33.60;;;;;;5051266;28;20037;-59
2022/03/20 01:42:10;;;;;;;0.40;0.10;;;21.10;33.70;;;;;;5049089;28;20041;-60
2022/03/20 01:44:37;;;;;;;0.10;0.10;;;21.10;33.60;;;;;;5048755;28;20049;-60
2022/03/20 01:47:08;;;;;;;2.13;0.40;;;21.10;33.60;;;;;;5048985;28;20052;-59
2022/03/20 01:49:35;;;;;;;0.30;0.10;;;21.10;34.30;;;;;;5048579;28;20045;-59
2022/03/20 01:52:14;;;;;;;0.50;0.20;;;21.10;33.70;;;;;;5048848;28;20063;-59
2022/03/20 01:54:45;;;;;;;1.23;0.10;;;21.10;33.70;;;;;;5050907;28;20045;-59
2022/03/20 01:57:16;;;;;;;0.40;0.10;;;21.00;34.30;;;;;;5047307;28;20041;-60
2022/03/20 01:59:43;;;;;;;0.65;0.10;;;21.00;33.60;;;;;;5047668;28;20033;-60
2022/03/20 02:02:11;;;;;;;0.80;0.20;;;21.00;33.70;;;;;;5049094;28;20045;-60
2022/03/20 02:04:39;;;;;;;0.32;0.15;;;21.00;33.70;;;;;;5048701;28;20120;-60
2022/03/20 02:07:07;;;;;;;0.52;0.20;;;21.00;33.70;;;;;;5048865;28;20044;-60
2022/03/20 02:09:36;;;;;;;0.77;0.10;;;21.00;33.70;;;;;;5050446;28;20044;-60
2022/03/20 02:12:06;;;;;;;0.10;0.10;;;21.00;33.70;;;;;;5034701;28;20463;-61
2022/03/20 02:14:33;;;;;;;1.10;0.10;;;21.00;33.70;;;;;;5048575;28;20041;-60
2022/03/20 02:17:00;;;;;;;0.98;0.47;;;21.00;33.70;;;;;;5048707;28;20041;-60
2022/03/20 02:19:28;;;;;;;0.52;0.10;;;20.90;33.70;;;;;;5048372;28;20044;-60
2022/03/20 02:21:57;;;;;;;0.30;0.10;;;21.00;33.70;;;;;;5048991;28;20057;-60
2022/03/20 02:24:33;;;;;;;0.30;0.10;;;20.90;33.70;;;;;;5036293;28;20130;-60
2022/03/20 02:27:11;;;;;;;0.90;0.40;;;21.00;33.70;;;;;;5047785;28;20059;-59
2022/03/20 02:29:39;;;;;;;0.20;0.10;;;20.90;33.70;;;;;;5033304;28;20041;-60
2022/03/20 02:32:08;;;;;;;0.20;0.10;;;20.90;33.70;;;;;;5048269;28;20041;-59
2022/03/20 02:34:36;;;;;;;0.57;0.20;;;20.90;33.70;;;;;;5047401;28;20559;-59
2022/03/20 02:37:05;;;;;;;0.10;0.10;;;20.90;33.70;;;;;;5048567;28;20095;-60
2022/03/20 02:39:33;;;;;;;0.30;0.30;;;20.90;33.70;;;;;;5050211;28;20148;-60
2022/03/20 02:42:03;;;;;;;0.22;0.10;;;20.90;33.80;;;;;;5047677;28;20041;-60
2022/03/20 02:44:48;;;;;;;0.15;0.10;;;20.90;33.80;;;;;;5046425;28;20077;-60
2022/03/20 02:47:15;;;;;;;2.00;0.55;;;20.90;33.80;;;;;;5048013;28;20033;-60
2022/03/20 02:49:43;;;;;;;1.00;0.68;;;20.90;33.80;;;;;;5048388;28;20418;-60
2022/03/20 02:52:11;;;;;;;1.20;0.10;;;20.80;33.70;;;;;;5047175;28;20065;-60
2022/03/20 02:54:38;;;;;;;0.25;0.20;;;20.80;34.30;;;;;;5049536;28;20044;-61
2022/03/20 02:57:08;;;;;;;0.28;0.10;;;20.80;33.80;;;;;;5047119;28;20042;-60
2022/03/20 02:59:35;;;;;;;0.35;0.10;;;20.80;33.70;;;;;;5043319;28;20124;-60
2022/03/20 03:02:02;;;;;;;0.60;0.10;;;20.80;33.80;;;;;;5048656;28;20102;-61
2022/03/20 03:04:30;;;;;;;0.40;0.20;;;20.80;33.80;;;;;;5041883;28;20037;-60
2022/03/20 03:07:02;;;;;;;0.17;0.17;;;20.80;33.80;;;;;;5046155;28;20705;-60
2022/03/20 03:12:15;;;;;;;1.65;0.08;;;20.80;33.80;;;;;;5048396;28;20067;-59
2022/03/20 03:17:28;;;;;;;0.75;0.10;;;20.70;33.80;;;;;;5047452;28;20195;-60
2022/03/20 03:19:56;;;;;;;0.73;0.10;;;20.70;34.50;;;;;;5047077;28;20115;-61
2022/03/20 03:22:25;;;;;;;1.05;0.20;;;20.70;34.40;;;;;;5031249;28;20049;-60
2022/03/20 03:24:54;;;;;;;0.15;0.10;;;20.70;34.10;;;;;;5048250;28;20041;-60
2022/03/20 03:27:21;;;;;;;0.20;0.10;;;20.70;33.80;;;;;;5048498;28;20044;-58
2022/03/20 03:29:48;;;;;;;0.20;0.10;;;20.70;33.80;;;;;;5047128;28;20070;-60
2022/03/20 03:32:15;;;;;;;0.10;0.10;;;20.70;33.80;;;;;;5047397;28;20072;-59
2022/03/20 03:37:27;;;;;;;0.10;0.10;;;20.70;33.90;;;;;;5041310;28;20042;-60
2022/03/20 03:39:55;;;;;;;0.17;0.00;;;20.70;33.90;;;;;;5047691;28;20032;-60
2022/03/20 03:42:22;;;;;;;0.20;0.10;;;20.70;33.90;;;;;;5050291;28;20177;-60
2022/03/20 03:44:51;;;;;;;0.30;0.10;;;20.70;33.90;;;;;;5046705;28;20075;-60
2022/03/20 03:47:18;;;;;;;0.90;0.38;;;20.60;33.90;;;;;;5041161;28;20041;-61
2022/03/20 03:49:45;;;;;;;0.13;0.08;;;20.60;33.90;;;;;;5040758;28;20041;-61
2022/03/20 03:52:14;;;;;;;0.20;0.10;;;20.60;33.90;;;;;;5046591;28;20053;-61
2022/03/20 03:54:41;;;;;;;0.82;0.10;;;20.60;33.90;;;;;;5048468;28;20044;-60
2022/03/20 03:57:10;;;;;;;1.48;0.30;;;20.60;33.90;;;;;;5046251;28;20049;-61
2022/03/20 03:59:37;;;;;;;0.63;0.20;;;20.60;33.90;;;;;;5044407;28;20040;-60
2022/03/20 04:02:05;;;;;;;0.95;0.10;;;20.60;34.00;;;;;;5040722;28;20139;-61
2022/03/20 04:04:32;;;;;;;0.13;0.10;;;20.60;34.00;;;;;;5047258;28;20048;-59
2022/03/20 04:06:59;;;;;;;0.10;0.10;;;20.60;34.00;;;;;;5047478;28;20475;-60
2022/03/20 04:09:27;;;;;;;0.25;0.10;;;20.60;34.00;;;;;;5047547;28;20041;-59
2022/03/20 04:11:54;;;;;;;0.47;0.32;;;20.50;33.90;;;;;;5046934;28;20069;-60
2022/03/20 04:14:23;;;;;;;0.30;0.30;;;20.50;34.00;;;;;;5046627;28;20041;-61
2022/03/20 04:16:50;;;;;;;0.20;0.10;;;20.50;34.00;;;;;;5029615;28;20036;-60
2022/03/20 04:19:17;;;;;;;0.45;0.10;;;20.60;34.10;;;;;;5045842;28;20067;-60
2022/03/20 04:21:44;;;;;;;0.17;0.10;;;20.50;34.00;;;;;;5047581;28;20045;-60
2022/03/20 04:24:11;;;;;;;0.40;0.30;;;20.50;34.10;;;;;;5046067;28;20140;-60
2022/03/20 04:26:38;;;;;;;0.20;0.20;;;20.50;34.10;;;;;;5046292;28;20048;-61
2022/03/20 04:29:05;;;;;;;1.27;0.13;;;20.50;34.10;;;;;;5045891;28;20055;-60
2022/03/20 04:31:34;;;;;;;0.28;0.10;;;20.50;34.10;;;;;;5046531;28;20052;-60
2022/03/20 04:34:01;;;;;;;0.50;0.10;;;20.50;34.10;;;;;;5046306;28;20111;-59
2022/03/20 04:36:28;;;;;;;0.57;0.10;;;20.50;34.10;;;;;;5046784;28;20045;-59
2022/03/20 04:38:59;;;;;;;0.32;0.10;;;20.50;34.10;;;;;;5045801;28;20037;-62
2022/03/20 04:41:26;;;;;;;1.58;0.10;;;20.50;34.10;;;;;;5062977;28;20502;-60
2022/03/20 04:43:54;;;;;;;0.10;0.10;;;20.40;34.10;;;;;;5033556;28;20048;-60
2022/03/20 04:46:22;;;;;;;0.10;0.10;;;20.40;34.10;;;;;;5026004;28;20103;-60
2022/03/20 04:59:50;;;;;;;1.45;0.10;;;20.40;34.20;;;;;;5022707;28;20041;-60
2022/03/20 05:02:17;;;;;;;1.02;0.20;;;20.40;34.30;;;;;;5026051;28;20557;-60
2022/03/20 05:04:45;;;;;;;0.52;0.15;;;20.40;34.30;;;;;;5025669;28;20049;-59
2022/03/20 05:07:12;;;;;;;0.20;0.10;;;20.30;34.20;;;;;;5025752;28;20041;-60
2022/03/20 05:15:11;;;;;;;0.85;0.20;;;20.40;34.30;;;;;;5025469;28;20041;-59
2022/03/20 05:17:38;;;;;;;1.45;0.30;;;20.30;34.80;;;;;;5025787;28;20064;-60
2022/03/20 05:20:08;;;;;;;1.80;0.63;;;20.30;34.30;;;;;;5025381;28;20064;-59
2022/03/20 05:22:37;;;;;;;1.10;0.20;;;20.30;34.30;;;;;;5026252;28;20034;-60
2022/03/20 05:25:08;;;;;;;2.50;0.47;;;20.30;34.30;;;;;;5026085;28;20052;-61
2022/03/20 05:27:36;;;;;;;4.28;0.47;;;20.30;34.30;;;;;;5027704;28;20104;-60
2022/03/20 05:30:05;;;;;;;1.98;0.60;;;20.30;34.30;;;;;;5008118;28;20134;-60
2022/03/20 05:32:32;;;;;;;3.88;0.60;;;20.30;34.30;;;;;;5025622;28;20067;-60
2022/03/20 05:35:00;;;;;;;3.78;0.95;;;20.30;34.40;;;;;;5025215;28;20033;-60
2022/03/20 05:37:29;;;;;;;6.13;1.60;;;20.30;34.40;;;;;;5025626;28;20041;-59
2022/03/20 05:39:57;;;;;;;3.67;0.77;;;20.30;34.40;;;;;;5025797;28;20042;-60
2022/03/20 05:42:24;;;;;;;2.55;0.73;;;20.30;34.40;;;;;;5029853;28;20060;-60
2022/03/20 05:44:51;;;;;;;5.50;0.70;;;20.30;34.40;;;;;;5045114;28;20502;-60
2022/03/20 05:47:18;;;;;;;5.25;1.45;;;20.30;34.40;;;;;;5044999;28;20040;-60
2022/03/20 05:49:46;;;;;;;3.90;1.75;;;20.30;34.40;;;;;;5044919;28;20040;-61
2022/03/20 05:52:15;;;;;;;6.38;1.73;;;20.30;34.40;;;;;;5045237;28;20087;-59
2022/03/20 05:54:43;;;;;;;3.42;1.60;;;20.30;34.40;;;;;;5046942;28;20136;-60
2022/03/20 05:59:56;;;;;;;10.02;2.17;;;20.30;34.50;;;;;;5042970;28;20477;-60
2022/03/20 06:02:23;;;;;;;6.38;0.85;;;20.30;34.50;;;;;;5044839;28;20514;-59
2022/03/20 06:04:51;;;;;;;7.90;2.75;;;20.30;34.50;;;;;;5044513;28;20033;-60
2022/03/20 06:07:18;;;;;;;6.00;2.17;;;20.20;34.50;;;;;;5038475;28;20128;-61
2022/03/20 06:09:47;;;;;;;8.25;2.55;;;20.20;34.50;;;;;;5042925;28;20051;-60
2022/03/20 06:12:14;;;;;;;6.30;1.25;;;20.30;34.60;;;;;;5049630;28;20037;-61
2022/03/20 06:14:41;;;;;;;8.13;1.83;;;20.30;34.60;;;;;;5048909;28;20037;-59
2022/03/20 06:17:09;;;;;;;5.68;1.83;;;20.20;34.50;;;;;;5048792;28;20534;-61
2022/03/20 06:19:38;;;;;;;8.75;2.67;;;20.20;34.50;;;;;;5048428;28;20490;-59
2022/03/20 06:22:06;;;;;;;9.38;2.38;;;20.30;34.50;;;;;;5048542;28;20509;-60
2022/03/20 06:24:33;;;;;;;8.75;2.47;;;20.20;34.50;;;;;;5050251;28;20052;-60
2022/03/20 06:27:02;;;;;;;9.88;2.30;;;20.30;34.60;;;;;;5048364;28;20053;-59
2022/03/20 06:29:29;;;;;;;8.93;2.53;;;20.20;34.50;;;;;;5048145;28;20442;-59
2022/03/20 06:31:57;;;;;;;7.88;1.98;;;20.20;34.50;;;;;;5047972;28;20044;-60
2022/03/20 06:34:24;;;;;;;7.55;2.03;;;20.20;34.50;;;;;;5047385;28;20037;-60
2022/03/20 06:36:55;;;;;;;6.78;1.85;;;20.20;34.60;;;;;;5033025;28;20044;-62
2022/03/20 06:39:22;;;;;;;5.63;1.90;;;20.20;34.60;;;;;;5038106;28;20155;-60
2022/03/20 06:41:49;;;;;;;6.47;2.47;;;20.20;34.60;;;;;;5047980;28;20041;-59
2022/03/20 06:44:18;;;;;;;8.02;3.38;;;20.20;34.60;;;;;;5033167;28;20057;-60
2022/03/20 06:46:45;;;;;;;9.07;1.92;;;20.20;34.60;;;;;;5028071;28;20034;-60
2022/03/20 06:49:12;;;;;;;8.18;1.77;;;20.20;34.60;;;;;;5027712;28;20064;-61
2022/03/20 06:51:40;;;;;;;7.15;2.13;;;20.20;34.60;;;;;;5029680;28;20038;-61
2022/03/20 06:54:07;;;;;;;8.98;2.83;;;20.20;34.60;;;;;;5027858;28;20041;-58
2022/03/20 06:56:34;;;;;;;6.70;1.98;;;20.20;34.50;;;;;;5027681;28;20422;-60
2022/03/20 06:59:01;;;;;;;6.55;1.85;;;20.20;34.50;;;;;;5027495;28;20048;-60
2022/03/20 07:01:30;;;;;;;6.22;1.80;;;20.30;34.60;;;;;;5021385;28;20033;-60
2022/03/20 07:03:57;;;;;;;8.75;2.10;;;20.30;34.60;;;;;;5025221;28;20049;-60
2022/03/20 07:06:28;;;;;;;7.60;2.50;;;20.30;34.60;;;;;;5028643;28;20037;-60
2022/03/20 07:08:59;;;;;;;9.93;2.35;;;20.30;34.60;;;;;;5024724;28;20045;-60
2022/03/20 07:11:32;;;;;;;5.68;2.13;;;20.30;34.70;;;;;;5027128;28;20112;-59
2022/03/20 07:14:01;;;;;;;8.20;2.58;;;20.30;34.70;;;;;;5027218;28;20458;-60
2022/03/20 07:16:31;;;;;;;6.28;1.70;;;20.20;34.70;;;;;;5027672;28;20076;-61
2022/03/20 07:18:59;;;;;;;7.95;2.15;;;20.30;34.70;;;;;;5027552;28;20431;-61
2022/03/20 07:21:28;;;;;;;5.88;1.65;;;20.30;34.80;;;;;;5028053;28;20117;-60
2022/03/20 07:23:57;;;;;;;5.40;1.38;;;20.30;35.30;;;;;;5027390;28;20464;-59
2022/03/20 07:29:30;;;;;;;6.10;1.45;;;20.30;34.70;;;;;;5026997;28;20038;-60
2022/03/20 07:31:59;;;;;;;3.92;1.83;;;20.30;34.70;;;;;;5020751;28;20076;-60
2022/03/20 07:34:27;;;;;;;4.07;1.15;;;20.30;34.80;;;;;;5026637;28;20387;-60
2022/03/20 07:36:54;;;;;;;5.32;0.65;;;20.40;34.80;;;;;;5027963;28;20045;-60
2022/03/20 07:39:21;;;;;;;5.55;1.52;;;20.40;34.80;;;;;;5027389;28;20047;-61
2022/03/20 07:41:48;;;;;;;3.72;1.25;;;20.40;34.80;;;;;;5026789;28;20038;-60
2022/03/20 07:44:24;;;;;;;;;;;20.40;34.80;;;;;;5026628;28;20127;-60
2022/03/20 07:46:52;;;;;;;1.50;0.73;;;20.40;34.70;;;;;;5026840;28;20349;-59
2022/03/20 07:49:21;;;;;;;2.83;1.35;;;20.40;34.90;;;;;;5021767;28;20037;-62
2022/03/20 07:51:48;;;;;;;3.72;0.73;;;20.40;34.80;;;;;;5028224;28;20077;-61
2022/03/20 07:54:16;;;;;;;2.55;0.90;;;20.40;34.80;;;;;;5027344;28;20041;-58
2022/03/20 07:56:43;;;;;;;3.65;0.88;;;20.50;34.80;;;;;;5026669;28;20120;-59
2022/03/20 07:59:11;;;;;;;1.20;0.40;;;20.50;34.70;;;;;;5027084;28;20499;-60
2022/03/20 08:01:38;;;;;;;3.25;1.35;;;20.50;34.70;;;;;;5027119;28;20064;-60
2022/03/20 08:04:06;;;;;;;3.00;1.27;;;20.50;34.70;;;;;;5026949;28;20041;-59
2022/03/20 08:06:34;;;;;;;3.15;1.10;;;20.50;34.70;;;;;;5027474;28;20510;-60
2022/03/20 08:09:01;;;;;;;2.63;0.95;;;20.50;34.60;;;;;;5023002;28;20045;-59
2022/03/20 08:11:29;;;;;;;1.77;0.80;;;20.60;34.70;;;;;;5026871;28;20041;-60
2022/03/20 08:13:57;;;;;;;3.92;1.05;;;20.60;35.30;;;;;;5026778;28;20129;-60
2022/03/20 08:16:26;;;;;;;4.63;1.10;;;20.60;34.70;;;;;;5020558;28;20124;-60
2022/03/20 08:18:53;;;;;;;1.15;0.65;;;20.60;34.60;;;;;;5027143;28;20052;-60
2022/03/20 08:21:20;;;;;;;2.45;0.65;;;20.60;34.60;;;;;;5027344;28;20048;-61
2022/03/20 08:23:48;;;;;;;2.70;1.08;;;20.60;34.50;;;;;;5026347;28;20033;-60
2022/03/20 08:26:17;;;;;;;1.90;1.15;;;20.70;34.50;;;;;;5026446;28;20127;-61
2022/03/20 08:28:45;;;;;;;4.20;1.05;;;20.70;34.50;;;;;;5026030;28;20121;-60
2022/03/20 08:31:12;;;;;;;6.55;0.60;;;20.70;34.60;;;;;;5026246;28;20730;-60
2022/03/20 08:33:40;;;;;;;3.20;0.63;;;20.70;34.50;;;;;;5026964;28;20048;-62
2022/03/20 08:36:08;;;;;;;1.40;0.68;;;20.70;34.50;;;;;;5025364;28;20049;-60
2022/03/20 08:38:36;;;;;;;1.83;0.98;;;20.70;34.40;;;;;;5018976;28;20041;-64
2022/03/20 08:41:05;;;;;;;1.40;0.52;;;20.70;34.40;;;;;;5020424;28;20124;-62
2022/03/20 08:43:32;;;;;;;2.47;0.68;;;20.70;34.40;;;;;;5035005;28;20085;-60
2022/03/20 08:45:59;;;;;;;1.52;0.40;;;20.80;34.40;;;;;;5046194;28;20041;-61
2022/03/20 08:48:26;;;;;;;2.55;0.52;;;20.70;34.30;;;;;;5047049;28;20076;-61
2022/03/20 08:50:53;;;;;;;0.93;0.25;;;20.80;34.20;;;;;;5045685;28;20047;-60
2022/03/20 08:53:21;;;;;;;3.03;0.60;;;20.80;34.20;;;;;;5045521;28;20112;-61
2022/03/20 08:55:49;;;;;;;2.95;0.45;;;20.80;34.20;;;;;;5045954;28;20502;-61
2022/03/20 08:58:18;;;;;;;1.48;0.60;;;20.80;34.10;;;;;;5045244;28;20142;-60
2022/03/20 09:00:45;;;;;;;0.60;0.30;;;20.80;34.10;;;;;;5015407;28;20457;-60
2022/03/20 09:03:13;;;;;;;2.33;0.55;;;20.80;34.10;;;;;;5035138;28;20053;-60
2022/03/20 09:05:40;;;;;;;1.75;0.65;;;20.90;34.10;;;;;;5045323;28;20051;-60
2022/03/20 09:08:08;;;;;;;1.73;0.38;;;20.80;34.00;;;;;;5045417;28;20029;-62
2022/03/20 09:10:35;;;;;;;2.28;0.95;;;20.80;34.00;;;;;;5045710;28;20079;-60
2022/03/20 09:13:02;;;;;;;1.38;0.65;;;20.90;34.10;;;;;;5045417;28;20090;-59
2022/03/20 09:15:31;;;;;;;1.08;0.90;;;20.90;34.00;;;;;;5046713;28;20083;-58
2022/03/20 09:20:45;;;;;;;5.18;0.50;;;20.90;34.00;;;;;;5041732;28;20045;-59
2022/03/20 09:23:13;;;;;;;2.45;0.75;;;20.90;33.90;;;;;;5045317;28;20511;-61
2022/03/20 09:25:40;;;;;;;1.83;0.98;;;20.90;33.90;;;;;;5045331;28;20043;-60
2022/03/20 09:28:09;;;;;;;1.60;0.75;;;21.00;33.90;;;;;;5045114;28;20052;-59
2022/03/20 09:30:39;;;;;;;1.23;0.70;;;21.00;33.80;;;;;;5047012;28;20094;-59
2022/03/20 09:33:06;;;;;;;1.10;0.75;;;21.00;33.70;;;;;;5045468;28;20045;-60
2022/03/20 09:35:34;;;;;;;0.90;0.63;;;21.00;33.80;;;;;;5044705;28;20110;-60
2022/03/20 09:38:03;;;;;;;0.77;0.50;;;21.00;33.70;;;;;;5045878;28;20036;-59
2022/03/20 09:40:31;;;;;;;2.30;0.85;;;21.00;33.70;;;;;;5045865;28;20498;-60
2022/03/20 09:42:58;;;;;;;1.73;0.43;;;21.00;33.60;;;;;;5051773;28;20044;-60
2022/03/20 09:45:25;;;;;;;0.52;0.40;;;21.00;33.60;;;;;;5049564;28;20132;-59
2022/03/20 09:47:55;;;;;;;1.50;0.40;;;21.00;33.60;;;;;;5049172;28;20059;-60
2022/03/20 09:50:22;;;;;;;1.73;0.60;;;21.00;33.60;;;;;;5048853;28;20037;-59
2022/03/20 09:52:50;;;;;;;0.50;0.30;;;21.10;33.60;;;;;;5049087;28;20099;-61
2022/03/20 09:55:17;;;;;;;2.22;0.40;;;21.10;33.60;;;;;;5049261;28;20053;-60
2022/03/20 09:57:44;;;;;;;2.30;1.33;;;21.10;33.60;;;;;;5050321;28;20418;-59
2022/03/20 10:00:14;;;;;;;1.20;0.80;;;21.10;33.60;;;;;;5049338;28;20051;-60
2022/03/20 10:02:42;;;;;;;1.80;0.77;;;21.10;33.60;;;;;;5049099;28;20041;-58
2022/03/20 10:05:11;;;;;;;2.38;1.20;;;21.10;33.50;;;;;;5048790;28;20029;-59
2022/03/20 10:07:40;;;;;;;0.60;0.60;;;21.20;33.60;;;;;;5048796;28;20040;-60
2022/03/20 10:10:09;;;;;;;0.80;0.80;;;21.20;33.50;;;;;;5048515;28;20052;-59
2022/03/20 10:12:38;;;;;;;2.75;0.75;;;21.20;33.50;;;;;;5047470;28;20514;-60
2022/03/20 10:15:06;;;;;;;1.95;0.70;;;21.20;33.50;;;;;;5048259;28;20055;-60
2022/03/20 10:17:33;;;;;;;2.05;0.52;;;21.20;33.40;;;;;;5048481;28;20053;-60
2022/03/20 10:20:15;;;;;;;1.05;0.40;;;21.20;33.40;;;;;;5048193;28;20044;-59
2022/03/20 10:22:43;;;;;;;1.65;0.52;;;21.30;33.40;;;;;;5048146;28;20123;-59
2022/03/20 10:25:12;;;;;;;2.20;0.82;;;21.30;33.40;;;;;;5048117;28;20042;-59
2022/03/20 10:27:40;;;;;;;2.10;0.90;;;21.30;33.40;;;;;;5050077;28;20392;-59
2022/03/20 10:30:11;;;;;;;1.67;0.60;;;21.30;33.30;;;;;;5048350;28;20040;-59
2022/03/20 10:32:49;;;;;;;0.88;0.50;;;21.40;33.30;;;;;;5048669;28;20043;-60
2022/03/20 10:35:17;;;;;;;0.80;0.60;;;21.40;33.30;;;;;;5029989;28;20048;-60
2022/03/20 10:37:51;;;;;;;0.52;0.52;;;21.40;33.30;;;;;;5031256;28;20045;-60
2022/03/20 10:40:20;;;;;;;0.90;0.40;;;21.40;33.20;;;;;;5048009;28;20091;-60
2022/03/20 10:43:07;;;;;;;2.05;0.90;;;21.50;33.30;;;;;;5047677;28;20049;-59
2022/03/20 10:45:51;;;;;;;1.60;0.95;;;21.50;33.20;;;;;;5028329;28;20121;-59
2022/03/20 10:48:28;;;;;;;0.52;0.52;;;21.60;33.20;;;;;;5028864;28;20041;-61
2022/03/20 10:50:59;;;;;;;1.85;0.50;;;21.60;33.20;;;;;;5028594;28;20033;-60
2022/03/20 10:53:26;;;;;;;3.95;0.63;;;21.60;33.20;;;;;;5027625;28;20026;-60
2022/03/20 10:55:57;;;;;;;0.52;0.47;;;21.60;33.10;;;;;;5026980;28;20504;-60
2022/03/20 10:58:26;;;;;;;1.40;1.13;;;21.70;33.10;;;;;;5028278;28;20163;-60
2022/03/20 11:00:53;;;;;;;0.75;0.63;;;21.70;33.10;;;;;;5028951;28;20145;-60
2022/03/20 11:03:22;;;;;;;0.90;0.70;;;21.70;33.00;;;;;;5029332;28;20041;-61
2022/03/20 11:05:50;;;;;;;1.55;0.68;;;21.70;32.90;;;;;;5027781;28;20385;-61
2022/03/20 11:08:19;;;;;;;1.33;0.80;;;21.80;32.90;;;;;;5027291;28;20033;-60
2022/03/20 11:10:49;;;;;;;1.00;0.30;;;21.80;32.70;;;;;;5027778;28;20041;-61
2022/03/20 11:13:17;;;;;;;0.40;0.30;;;21.90;32.60;;;;;;5027940;28;20046;-59
2022/03/20 11:15:48;;;;;;;0.85;0.50;;;21.90;32.50;;;;;;5029233;28;20120;-61
2022/03/20 11:18:15;;;;;;;2.05;0.88;;;22.10;32.60;;;;;;5031408;28;20081;-60
2022/03/20 11:20:45;;;;;;;1.70;0.70;;;22.00;32.50;;;;;;5027941;28;20052;-59
2022/03/20 11:23:14;;;;;;;1.90;0.57;;;22.10;32.40;;;;;;5020650;28;20148;-60
2022/03/20 11:25:45;;;;;;;0.93;0.30;;;22.20;32.40;;;;;;5027721;28;20110;-60
2022/03/20 11:28:13;;;;;;;0.98;0.77;;;22.20;32.30;;;;;;5027540;28;20120;-60
2022/03/20 11:30:40;;;;;;;0.55;0.30;;;22.30;32.30;;;;;;5029230;28;20132;-62
2022/03/20 11:33:10;;;;;;;0.50;0.30;;;22.40;32.30;;;;;;5027295;28;20515;-60
2022/03/20 11:35:38;;;;;;;2.35;0.50;;;22.40;32.20;;;;;;5026849;28;20041;-61
2022/03/20 11:38:17;;;;;;;1.15;1.05;;;22.50;32.20;;;;;;5026486;28;20418;-60
2022/03/20 11:41:13;;;;;;;1.30;0.38;;;22.60;32.20;;;;;;5027454;28;20037;-59
2022/03/20 11:43:43;;;;;;;0.50;0.40;;;22.60;32.10;;;;;;5036954;28;20041;-59
2022/03/20 11:46:27;;;;;;;0.55;0.43;;;22.60;32.10;;;;;;5026824;28;20490;-61
2022/03/20 11:49:20;;;;;;;3.53;0.73;;;22.70;32.10;;;;;;5043956;28;20491;-60
2022/03/20 11:51:56;;;;;;;0.60;0.35;;;22.80;32.10;;;;;;5047086;28;20075;-59
2022/03/20 11:54:33;;;;;;;0.65;0.45;;;22.80;32.00;;;;;;5034759;28;20059;-60
2022/03/20 11:57:02;;;;;;;0.95;0.20;;;22.90;31.90;;;;;;5032762;28;20041;-61
2022/03/20 11:59:50;;;;;;;1.30;0.20;;;22.90;31.90;;;;;;5046366;28;20503;-60
2022/03/20 12:02:19;;;;;;;2.00;0.30;;;23.10;31.90;;;;;;5043293;28;20069;-60
2022/03/20 12:05:00;;;;;;;1.55;0.55;;;23.10;31.80;;;;;;5046230;28;20140;-61
2022/03/20 12:07:36;;;;;;;0.45;0.45;;;23.10;31.70;;;;;;5045260;28;20099;-60
2022/03/20 12:10:10;;;;;;;0.82;0.38;;;23.20;31.70;;;;;;5044467;28;20129;-59
2022/03/20 12:13:00;;;;;;;1.27;0.40;;;23.20;31.70;;;;;;5046733;28;20056;-61
2022/03/20 12:15:29;;;;;;;2.05;0.30;;;23.30;31.60;;;;;;5047132;28;20052;-60
2022/03/20 12:17:58;;;;;;;0.50;0.50;;;23.40;31.60;;;;;;5033030;28;20030;-59
2022/03/20 12:20:59;;;;;;;0.30;0.20;;;23.40;31.50;;;;;;5046172;28;20047;-62
2022/03/20 12:23:43;;;;;;;0.60;0.43;;;23.50;31.40;;;;;;5045153;28;20033;-60
2022/03/20 12:26:44;;;;;;;1.25;0.40;;;23.50;31.40;;;;;;5045852;28;20056;-60
2022/03/20 12:29:29;;;;;;;0.65;0.22;;;23.60;31.30;;;;;;5003345;28;20064;-58
2022/03/20 12:31:57;;;;;;;0.40;0.30;;;23.60;31.30;;;;;;5004246;28;20419;-60
2022/03/20 12:34:26;;;;;;;0.90;0.63;;;23.60;31.20;;;;;;5006547;28;20046;-60
2022/03/20 12:36:54;;;;;;;0.55;0.20;;;23.70;31.20;;;;;;5009786;28;20630;-60
2022/03/20 12:39:49;;;;;;;0.75;0.28;;;23.80;31.20;;;;;;5009082;28;20108;-58
2022/03/20 12:42:18;;;;;;;0.40;0.40;;;23.80;31.10;;;;;;5009533;28;20049;-60
2022/03/20 12:44:48;;;;;;;0.30;0.20;;;23.90;31.10;;;;;;5003950;28;20117;-59
2022/03/20 12:47:20;;;;;;;1.05;0.30;;;23.90;31.00;;;;;;5007387;28;20112;-61
2022/03/20 12:49:48;;;;;;;0.40;0.20;;;24.00;31.00;;;;;;5002874;28;20042;-60
2022/03/20 12:52:18;;;;;;;0.60;0.60;;;24.10;30.90;;;;;;5008049;28;20041;-59
2022/03/20 12:54:55;;;;;;;0.40;0.20;;;24.10;30.80;;;;;;5004925;28;20128;-60
2022/03/20 12:57:37;;;;;;;0.85;0.20;;;24.20;30.80;;;;;;5006410;28;20049;-58
2022/03/20 13:00:15;;;;;;;0.65;0.25;;;24.20;30.70;;;;;;5010729;28;20456;-59
2022/03/20 13:03:00;;;;;;;0.30;0.30;;;24.30;30.70;;;;;;5013390;28;20072;-59
2022/03/20 13:05:29;;;;;;;0.57;0.30;;;24.30;30.60;;;;;;5021100;28;20075;-59
2022/03/20 13:07:57;;;;;;;0.98;0.20;;;24.40;30.60;;;;;;5025555;28;20038;-59
2022/03/20 13:10:25;;;;;;;0.52;0.35;;;24.40;31.10;;;;;;5025884;28;20751;-59
2022/03/20 13:12:54;;;;;;;2.60;0.20;;;24.50;30.50;;;;;;5026582;28;20045;-59
2022/03/20 13:15:25;;;;;;;1.30;0.30;;;24.60;30.50;;;;;;5025924;28;20053;-60
2022/03/20 13:17:52;;;;;;;0.20;0.20;;;24.60;30.30;;;;;;5025568;28;20043;-59
2022/03/20 13:20:21;;;;;;;0.50;0.28;;;24.70;30.30;;;;;;5027813;28;20121;-59
2022/03/20 13:22:48;;;;;;;0.82;0.20;;;24.70;30.20;;;;;;5029684;28;20124;-59
2022/03/20 13:25:17;;;;;;;0.35;0.35;;;24.80;30.20;;;;;;5029813;28;20037;-59
2022/03/20 13:27:46;;;;;;;0.50;0.10;;;24.80;30.10;;;;;;5031197;28;20477;-60
2022/03/20 13:30:15;;;;;;;1.30;0.30;;;24.90;30.10;;;;;;5030304;28;20129;-60
2022/03/20 13:32:45;;;;;;;0.60;0.32;;;25.00;30.00;;;;;;5015559;28;20099;-59